Time;durP1;ratioP1;P1;durP2;ratioP2;P2;SDS_P1;SDS_P2;PMS_P1;PMS_P2;Temp;Humidity;BMP_temperature;BMP_pressure;BME280_temperature;BME280_humidity;BME280_pressure;Samples;Min_cycle;Max_cycle;Signal;HPM_P1;HPM_P2
2020/12/25 00:00:25;;;;;;;3.40;2.07;;;;;;;4.20;86.08;98954.48;1746339;80;25791;-68
2020/12/25 00:02:52;;;;;;;3.05;2.10;;;;;;;4.11;85.54;98957.47;1754586;80;22358;-69
2020/12/25 00:05:18;;;;;;;3.53;2.10;;;;;;;4.12;85.85;98954.71;1748187;80;21175;-68
2020/12/25 00:07:44;;;;;;;4.10;2.00;;;;;;;4.18;85.59;98961.16;1744065;80;21633;-69
2020/12/25 00:10:09;;;;;;;4.03;2.50;;;;;;;4.13;85.83;98974.66;1747872;80;26913;-69
2020/12/25 00:12:35;;;;;;;3.02;2.30;;;;;;;4.11;86.15;98969.22;1745566;80;24875;-67
2020/12/25 00:15:01;;;;;;;3.37;1.92;;;;;;;4.14;86.45;98962.41;1742171;80;28381;-69
2020/12/25 00:17:27;;;;;;;3.50;2.05;;;;;;;4.09;86.05;98981.61;1711043;81;21214;-66
2020/12/25 00:19:53;;;;;;;3.45;2.27;;;;;;;4.09;86.69;98969.86;1708238;81;21834;-67
2020/12/25 00:22:19;;;;;;;2.90;2.00;;;;;;;4.05;86.58;98972.41;1742426;80;26307;-68
2020/12/25 00:24:44;;;;;;;3.40;2.10;;;;;;;4.10;86.87;98971.48;1740356;80;25860;-67
2020/12/25 00:27:10;;;;;;;3.00;2.02;;;;;;;4.12;86.46;98980.02;1738864;80;28441;-69
2020/12/25 00:29:36;;;;;;;4.12;2.00;;;;;;;4.18;86.96;98983.37;1737586;80;27122;-70
2020/12/25 00:32:02;;;;;;;3.12;1.82;;;;;;;4.16;86.23;98983.97;1740734;80;21943;-68
2020/12/25 00:34:27;;;;;;;3.27;1.77;;;;;;;4.14;85.59;98998.98;1738734;80;25155;-68
2020/12/25 00:36:54;;;;;;;4.30;1.90;;;;;;;4.13;85.67;99001.24;1742323;80;24702;-67
2020/12/25 00:39:20;;;;;;;2.60;1.80;;;;;;;4.14;85.50;99002.90;1738213;80;21208;-67
2020/12/25 00:41:48;;;;;;;3.72;1.80;;;;;;;4.19;85.68;99003.28;1739502;80;26805;-67
2020/12/25 00:44:14;;;;;;;3.60;2.15;;;;;;;4.25;85.35;99009.24;1738468;80;22019;-67
2020/12/25 00:46:40;;;;;;;4.10;1.98;;;;;;;4.22;85.16;99000.38;1739013;80;26828;-67
2020/12/25 00:49:06;;;;;;;3.83;2.00;;;;;;;4.31;85.12;99006.05;1738807;80;21234;-68
2020/12/25 00:51:31;;;;;;;4.10;2.10;;;;;;;4.38;85.08;99017.23;1732717;80;28498;-67
2020/12/25 00:53:57;;;;;;;3.37;2.02;;;;;;;4.41;84.97;99010.41;1737633;80;26791;-68
2020/12/25 00:56:23;;;;;;;5.03;2.22;;;;;;;4.49;85.30;99014.45;1739048;80;22808;-70
2020/12/25 00:58:49;;;;;;;3.05;2.15;;;;;;;4.47;85.01;99015.91;1739573;80;25753;-70
2020/12/25 01:01:14;;;;;;;5.20;2.47;;;;;;;4.40;85.44;99024.47;1737120;80;25351;-70
2020/12/25 01:03:42;;;;;;;4.10;2.37;;;;;;;4.33;86.09;99027.31;1737356;80;28446;-71
2020/12/25 01:06:14;;;;;;;4.65;2.80;;;;;;;4.28;86.52;99028.55;1737978;80;21655;-71
2020/12/25 01:08:40;;;;;;;3.87;2.60;;;;;;;4.22;87.33;99030.43;1737234;80;21981;-73
2020/12/25 01:11:06;;;;;;;4.45;2.67;;;;;;;4.23;87.68;99045.16;1737505;80;21583;-69
2020/12/25 01:13:34;;;;;;;5.83;3.00;;;;;;;4.26;87.78;99039.64;1739550;80;24704;-69
2020/12/25 01:16:08;;;;;;;4.05;3.02;;;;;;;4.23;87.64;99039.93;1737963;80;21128;-70
2020/12/25 01:18:35;;;;;;;5.25;3.10;;;;;;;4.24;88.56;99048.12;1734752;81;21249;-67
2020/12/25 01:21:00;;;;;;;5.35;3.10;;;;;;;4.22;88.78;99050.03;1739769;80;21236;-67
2020/12/25 01:23:26;;;;;;;5.33;3.17;;;;;;;4.16;89.30;99047.98;1753495;80;27217;-67
2020/12/25 01:25:52;;;;;;;5.77;3.10;;;;;;;4.10;89.87;99053.78;1751220;80;25745;-68
2020/12/25 01:28:18;;;;;;;5.60;3.05;;;;;;;4.09;89.82;99058.69;1751433;80;28762;-66
2020/12/25 01:30:44;;;;;;;5.20;3.35;;;;;;;4.11;90.32;99065.89;1757750;80;21447;-67
2020/12/25 01:33:10;;;;;;;4.50;3.05;;;;;;;4.12;90.33;99063.63;1759563;80;21753;-67
2020/12/25 01:35:38;;;;;;;5.28;3.20;;;;;;;3.94;91.05;99073.47;1757825;80;26850;-68
2020/12/25 01:38:04;;;;;;;3.75;2.80;;;;;;;4.03;91.59;99078.84;1754979;80;21197;-67
2020/12/25 01:40:30;;;;;;;4.28;3.05;;;;;;;4.08;91.84;99080.53;1752475;80;21193;-67
2020/12/25 01:42:56;;;;;;;4.75;3.05;;;;;;;4.06;92.02;99083.29;1756204;80;27161;-68
2020/12/25 01:45:22;;;;;;;6.42;3.08;;;;;;;4.04;92.45;99081.77;1755052;80;22299;-67
2020/12/25 01:47:51;;;;;;;4.70;2.98;;;;;;;3.93;92.92;99087.52;1752248;80;21212;-66
2020/12/25 01:50:17;;;;;;;5.28;3.02;;;;;;;3.87;93.00;99080.23;1754572;80;21253;-67
2020/12/25 01:52:43;;;;;;;4.75;2.90;;;;;;;3.83;93.30;99095.83;1756605;80;21193;-66
2020/12/25 01:55:09;;;;;;;5.55;3.45;;;;;;;3.77;93.96;99088.55;1732833;80;21197;-68
2020/12/25 01:57:35;;;;;;;5.00;3.40;;;;;;;3.80;94.26;99085.66;1752321;80;21165;-67
2020/12/25 02:00:03;;;;;;;7.05;3.52;;;;;;;3.84;94.48;99104.48;1757786;80;22277;-67
2020/12/25 02:02:29;;;;;;;5.97;3.60;;;;;;;3.83;94.93;99105.46;1753760;80;21105;-67
2020/12/25 02:04:55;;;;;;;7.10;4.00;;;;;;;3.78;95.25;99109.80;1761108;80;28405;-67
2020/12/25 02:07:21;;;;;;;8.08;3.98;;;;;;;3.76;95.59;99107.32;1757820;80;26659;-67
2020/12/25 02:09:46;;;;;;;5.45;3.90;;;;;;;3.65;96.07;99111.39;1757428;80;21848;-66
2020/12/25 02:12:12;;;;;;;6.67;3.95;;;;;;;3.66;96.50;99110.89;1738593;80;27143;-66
2020/12/25 02:14:38;;;;;;;6.73;3.87;;;;;;;3.70;96.53;99113.59;1753937;80;26100;-66
2020/12/25 02:17:03;;;;;;;6.42;3.52;;;;;;;3.78;96.53;99104.57;1752001;80;28666;-66
2020/12/25 02:19:29;;;;;;;6.20;3.67;;;;;;;3.89;96.00;99103.11;1760395;80;26758;-68
2020/12/25 02:21:55;;;;;;;5.72;3.45;;;;;;;3.96;95.72;99111.20;1754819;80;21940;-67
2020/12/25 02:24:21;;;;;;;6.65;3.72;;;;;;;3.81;95.48;99120.42;1743024;80;26836;-68
2020/12/25 02:26:46;;;;;;;5.10;3.60;;;;;;;3.77;95.94;99127.72;1713573;81;23755;-67
2020/12/25 02:29:12;;;;;;;5.25;3.52;;;;;;;3.84;96.03;99130.59;1743915;80;28379;-67
2020/12/25 02:31:38;;;;;;;6.05;3.42;;;;;;;3.92;95.50;99130.26;1749040;80;26795;-67
2020/12/25 02:34:03;;;;;;;4.85;3.40;;;;;;;3.93;95.21;99135.83;1745948;80;21676;-67
2020/12/25 02:36:29;;;;;;;5.03;3.37;;;;;;;3.91;95.13;99142.96;1708211;81;25687;-66
2020/12/25 02:38:55;;;;;;;5.93;3.50;;;;;;;3.86;94.71;99147.78;1744056;80;23725;-67
2020/12/25 02:41:21;;;;;;;4.40;3.17;;;;;;;3.89;94.58;99149.30;1745597;80;28785;-67
2020/12/25 02:43:49;;;;;;;7.20;3.60;;;;;;;3.88;94.10;99172.46;1744287;80;21216;-67
2020/12/25 02:46:15;;;;;;;4.67;3.05;;;;;;;3.81;94.56;99161.74;1746851;80;26785;-65
2020/12/25 02:48:41;;;;;;;4.70;2.95;;;;;;;3.78;94.33;99173.77;1742425;80;21232;-66
2020/12/25 02:51:07;;;;;;;5.37;3.10;;;;;;;3.80;94.02;99171.02;1744668;80;21536;-67
2020/12/25 02:53:32;;;;;;;4.55;3.10;;;;;;;3.80;93.91;99173.63;1744412;80;28842;-66
2020/12/25 02:55:58;;;;;;;5.17;3.10;;;;;;;3.81;93.63;99173.50;1742474;80;26769;-67
2020/12/25 02:58:24;;;;;;;4.08;2.85;;;;;;;3.84;93.62;99170.61;1745423;80;21790;-66
2020/12/25 03:00:49;;;;;;;4.67;3.10;;;;;;;3.87;93.63;99172.95;1744977;80;25061;-66
2020/12/25 03:03:15;;;;;;;5.77;3.23;;;;;;;3.87;93.31;99182.55;1744872;80;22698;-66
2020/12/25 03:05:41;;;;;;;4.37;3.10;;;;;;;3.83;93.51;99179.40;1741678;80;28363;-67
2020/12/25 03:08:07;;;;;;;6.10;3.25;;;;;;;3.85;93.36;99187.91;1743081;80;27503;-67
2020/12/25 03:10:32;;;;;;;5.33;3.37;;;;;;;3.81;93.57;99194.39;1748839;80;21363;-67
2020/12/25 03:12:58;;;;;;;5.53;3.27;;;;;;;3.74;93.87;99199.80;1743612;80;27465;-67
2020/12/25 03:15:24;;;;;;;4.90;3.13;;;;;;;3.81;94.13;99204.83;1747695;80;25595;-67
2020/12/25 03:17:50;;;;;;;5.15;2.87;;;;;;;3.72;93.78;99182.15;1743564;80;28347;-66
2020/12/25 03:20:15;;;;;;;6.20;3.70;;;;;;;3.86;93.75;99214.88;1748092;80;26992;-67
2020/12/25 03:22:41;;;;;;;4.90;3.27;;;;;;;3.90;93.78;99217.08;1746068;80;21990;-68
2020/12/25 03:25:07;;;;;;;6.60;3.33;;;;;;;3.91;93.79;99214.79;1746832;81;25383;-68
2020/12/25 03:27:33;;;;;;;5.03;2.80;;;;;;;3.94;93.73;99219.73;1742802;80;23664;-68
2020/12/25 03:29:58;;;;;;;5.60;3.50;;;;;;;3.88;93.94;99213.75;1747037;81;28340;-67
2020/12/25 03:32:24;;;;;;;4.75;2.95;;;;;;;3.89;94.08;99221.13;1745568;81;26808;-68
2020/12/25 03:34:50;;;;;;;4.92;2.87;;;;;;;3.92;93.60;99225.59;1755273;80;21877;-68
2020/12/25 03:37:16;;;;;;;4.80;3.10;;;;;;;3.97;93.62;99229.59;1750379;80;25200;-68
2020/12/25 03:39:41;;;;;;;5.17;3.10;;;;;;;3.93;93.75;99226.41;1746499;81;24221;-66
2020/12/25 03:42:07;;;;;;;5.90;3.08;;;;;;;3.97;93.77;99226.98;1747491;81;28878;-68
2020/12/25 03:44:33;;;;;;;4.25;2.80;;;;;;;3.94;94.00;99238.52;1748363;80;26886;-68
2020/12/25 03:46:59;;;;;;;6.08;3.30;;;;;;;3.82;94.42;99241.72;1747259;80;21581;-67
2020/12/25 03:49:24;;;;;;;5.67;3.10;;;;;;;3.86;94.68;99252.25;1737275;81;26822;-68
2020/12/25 03:51:50;;;;;;;6.07;3.40;;;;;;;3.89;94.68;99259.81;1745150;80;23759;-67
2020/12/25 03:54:16;;;;;;;6.80;3.42;;;;;;;3.87;94.70;99253.91;1743590;81;28281;-66
2020/12/25 03:56:41;;;;;;;4.17;2.95;;;;;;;3.77;94.96;99255.67;1746271;81;26749;-66
2020/12/25 03:59:07;;;;;;;5.97;3.47;;;;;;;3.76;95.62;99263.18;1747006;80;22040;-66
2020/12/25 04:01:33;;;;;;;4.40;2.97;;;;;;;3.78;95.68;99269.08;1748571;80;24420;-68
2020/12/25 04:03:58;;;;;;;6.73;3.40;;;;;;;3.81;95.32;99266.20;1745764;81;24271;-69
2020/12/25 04:06:24;;;;;;;5.72;3.02;;;;;;;3.76;94.86;99261.87;1749037;81;28894;-68
2020/12/25 04:08:50;;;;;;;6.58;3.42;;;;;;;3.83;94.98;99266.88;1751952;80;26747;-69
2020/12/25 04:11:16;;;;;;;6.33;3.20;;;;;;;3.75;95.58;99265.44;1745107;81;21511;-67
2020/12/25 04:13:42;;;;;;;7.00;3.37;;;;;;;3.68;96.04;99272.14;1735781;80;25292;-67
2020/12/25 04:16:07;;;;;;;5.13;3.33;;;;;;;3.77;96.25;99273.95;1748304;80;22897;-67
2020/12/25 04:18:33;;;;;;;6.15;3.17;;;;;;;3.69;96.62;99279.02;1744158;81;28319;-67
2020/12/25 04:20:59;;;;;;;5.10;3.10;;;;;;;3.69;96.92;99272.50;1742328;80;26771;-67
2020/12/25 04:23:27;;;;;;;4.92;2.98;;;;;;;3.67;97.05;99291.39;1741767;80;21769;-68
2020/12/25 04:25:53;;;;;;;5.95;3.40;;;;;;;3.72;97.11;99278.76;1746631;80;21174;-66
2020/12/25 04:28:19;;;;;;;6.67;3.17;;;;;;;3.73;97.04;99283.03;1745042;80;25730;-67
2020/12/25 04:30:45;;;;;;;4.62;3.12;;;;;;;3.68;97.45;99289.11;1745242;80;28265;-66
2020/12/25 04:33:11;;;;;;;7.20;3.42;;;;;;;3.73;97.38;99285.64;1742263;80;21225;-65
2020/12/25 04:35:36;;;;;;;8.28;3.60;;;;;;;3.76;97.38;99290.59;1745302;80;21775;-66
2020/12/25 04:38:02;;;;;;;6.77;3.57;;;;;;;3.84;97.03;99282.91;1743153;80;25306;-67
2020/12/25 04:40:28;;;;;;;5.80;3.57;;;;;;;3.85;97.01;99277.20;1742683;80;23771;-67
2020/12/25 04:42:54;;;;;;;6.85;3.15;;;;;;;3.81;97.12;99285.79;1744108;80;21251;-66
2020/12/25 04:45:20;;;;;;;4.80;3.40;;;;;;;3.81;97.22;99279.72;1744713;80;26805;-67
2020/12/25 04:47:46;;;;;;;6.47;3.52;;;;;;;3.85;96.97;99291.07;1712316;81;21208;-67
2020/12/25 04:50:12;;;;;;;5.30;3.57;;;;;;;3.88;96.90;99286.88;1709472;81;25166;-68
2020/12/25 04:52:38;;;;;;;4.83;3.53;;;;;;;3.90;96.88;99287.59;1747779;80;25733;-67
2020/12/25 04:55:05;;;;;;;4.42;3.30;;;;;;;3.83;96.76;99297.41;1747446;80;21137;-68
2020/12/25 04:57:30;;;;;;;4.97;3.57;;;;;;;3.93;97.13;99295.62;1744519;80;21572;-66
2020/12/25 04:59:56;;;;;;;7.08;3.60;;;;;;;3.81;97.16;99285.79;1745936;80;22247;-67
2020/12/25 05:02:22;;;;;;;5.47;3.40;;;;;;;3.79;97.43;99287.69;1742217;80;27200;-67
2020/12/25 05:04:48;;;;;;;5.87;3.43;;;;;;;3.80;97.65;99291.96;1745712;80;25697;-67
2020/12/25 05:07:14;;;;;;;6.83;3.77;;;;;;;3.78;98.10;99289.48;1743093;80;28324;-66
2020/12/25 05:09:40;;;;;;;5.15;3.37;;;;;;;3.83;98.07;99290.88;1746917;80;21121;-67
2020/12/25 05:12:05;;;;;;;6.60;3.77;;;;;;;3.84;98.22;99298.58;1747167;80;22769;-67
2020/12/25 05:14:34;;;;;;;5.43;3.97;;;;;;;3.76;98.93;99307.57;1741496;80;26316;-66
2020/12/25 05:17:00;;;;;;;6.40;4.10;;;;;;;3.87;98.90;99311.38;1747563;80;21240;-67
2020/12/25 05:19:28;;;;;;;6.53;4.05;;;;;;;3.91;98.71;99326.28;1747763;80;28306;-66
2020/12/25 05:21:58;;;;;;;6.53;4.20;;;;;;;3.84;98.71;99326.46;1745807;80;29557;-67
2020/12/25 05:24:24;;;;;;;7.15;4.45;;;;;;;3.83;98.94;99333.48;1745768;80;21291;-66
2020/12/25 05:26:55;;;;;;;6.42;4.62;;;;;;;3.81;99.20;99327.58;1748180;80;21603;-68
2020/12/25 05:29:25;;;;;;;6.35;4.53;;;;;;;3.86;99.31;99322.77;1745208;80;21182;-67
2020/12/25 05:31:52;;;;;;;6.92;4.72;;;;;;;3.88;99.09;99333.08;1742880;80;21239;-67
2020/12/25 05:34:18;;;;;;;6.83;4.42;;;;;;;3.81;99.45;99339.33;1745750;80;21194;-68
2020/12/25 05:36:53;;;;;;;9.27;5.00;;;;;;;3.90;99.39;99337.22;1742829;80;21194;-68
2020/12/25 05:39:28;;;;;;;6.62;4.12;;;;;;;3.87;99.67;99341.41;1746587;80;21848;-67
2020/12/25 05:42:03;;;;;;;8.43;4.87;;;;;;;3.90;99.79;99346.36;1749063;80;21206;-68
2020/12/25 05:44:31;;;;;;;7.55;4.20;;;;;;;3.99;99.66;99349.12;1744942;80;21208;-67
2020/12/25 05:47:00;;;;;;;6.40;4.53;;;;;;;4.07;99.18;99347.97;1744893;80;21576;-67
2020/12/25 05:49:27;;;;;;;6.05;4.22;;;;;;;4.01;99.18;99358.49;1742679;80;21243;-68
2020/12/25 05:51:52;;;;;;;6.30;4.22;;;;;;;3.99;98.84;99363.49;1743912;80;21192;-67
2020/12/25 05:54:23;;;;;;;5.20;3.60;;;;;;;4.00;98.54;99367.77;1743131;80;25732;-67
2020/12/25 05:56:52;;;;;;;6.72;4.03;;;;;;;3.95;98.62;99366.38;1746236;80;21447;-67
2020/12/25 05:59:23;;;;;;;6.75;4.03;;;;;;;4.05;98.86;99374.72;1747999;80;21145;-67
2020/12/25 06:01:48;;;;;;;5.65;4.08;;;;;;;4.06;98.63;99376.37;1749135;80;21307;-66
2020/12/25 06:04:15;;;;;;;5.10;3.47;;;;;;;4.04;98.57;99390.03;1742779;80;25200;-66
2020/12/25 06:06:41;;;;;;;6.33;3.80;;;;;;;4.02;98.47;99389.35;1743951;80;21500;-67
2020/12/25 06:09:07;;;;;;;5.50;3.50;;;;;;;3.95;98.47;99402.94;1750606;80;21217;-67
2020/12/25 06:11:33;;;;;;;5.25;2.95;;;;;;;3.89;98.99;99410.00;1741888;80;26785;-67
2020/12/25 06:13:59;;;;;;;5.03;3.05;;;;;;;3.88;98.88;99413.55;1744712;80;21433;-66
2020/12/25 06:16:26;;;;;;;6.00;3.05;;;;;;;3.83;98.98;99431.41;1748144;80;26330;-67
2020/12/25 06:19:04;;;;;;;;;;;;;;;3.78;99.12;99424.46;1748255;80;21216;-67
2020/12/25 06:21:45;;;;;;;4.47;2.95;;;;;;;3.89;98.67;99429.59;1745169;80;20496;-67
2020/12/25 06:24:14;;;;;;;6.10;2.90;;;;;;;3.85;98.59;99438.63;1711133;80;21208;-68
2020/12/25 06:26:40;;;;;;;5.20;3.08;;;;;;;3.78;98.48;99444.05;1743217;80;21762;-67
2020/12/25 06:29:06;;;;;;;5.17;3.20;;;;;;;3.68;99.17;99445.77;1744418;80;27198;-67
2020/12/25 06:31:44;;;;;;;5.27;2.80;;;;;;;3.71;99.49;99432.45;1742560;80;22748;-66
2020/12/25 06:34:10;;;;;;;4.80;3.02;;;;;;;3.78;99.50;99434.42;1746680;80;21224;-67
2020/12/25 06:36:36;;;;;;;4.42;2.87;;;;;;;3.85;99.20;99441.24;1742230;80;21233;-68
2020/12/25 06:39:11;;;;;;;5.90;2.98;;;;;;;3.85;98.42;99438.63;1748904;80;21179;-66
2020/12/25 06:41:37;;;;;;;5.90;2.70;;;;;;;3.87;98.45;99447.19;1743866;80;21158;-67
2020/12/25 06:44:08;;;;;;;4.28;2.65;;;;;;;3.89;97.95;99449.67;1744608;80;21213;-66
2020/12/25 06:46:35;;;;;;;5.05;2.70;;;;;;;3.80;98.29;99469.55;1748859;80;21224;-66
2020/12/25 06:49:06;;;;;;;4.83;2.75;;;;;;;3.75;97.97;99475.16;1747717;80;21189;-66
2020/12/25 06:51:44;;;;;;;4.08;2.50;;;;;;;3.75;97.97;99475.16;1747598;80;21617;-67
2020/12/25 06:54:22;;;;;;;4.72;2.50;;;;;;;3.76;97.63;99499.50;1744374;80;21146;-67
2020/12/25 06:56:51;;;;;;;4.60;2.45;;;;;;;3.70;97.51;99474.72;1744679;80;21233;-67
2020/12/25 06:59:19;;;;;;;5.45;2.50;;;;;;;3.78;97.49;99486.65;1745346;80;21208;-67
2020/12/25 07:01:46;;;;;;;4.92;2.50;;;;;;;3.66;97.21;99488.16;1748716;80;21239;-67
2020/12/25 07:04:31;;;;;;;5.58;2.67;;;;;;;3.59;97.68;99484.75;1744409;80;27339;-66
2020/12/25 07:07:09;;;;;;;4.92;2.67;;;;;;;3.62;97.37;99510.25;1746162;80;21225;-67
2020/12/25 07:09:40;;;;;;;5.33;2.47;;;;;;;3.56;97.39;99511.61;1744199;80;21649;-67
2020/12/25 07:12:20;;;;;;;5.80;2.70;;;;;;;3.54;97.05;99516.10;1745388;80;21157;-67
2020/12/25 07:14:47;;;;;;;5.37;2.02;;;;;;;3.54;97.03;99511.73;1748782;80;21172;-67
2020/12/25 07:17:12;;;;;;;5.30;2.40;;;;;;;3.51;96.68;99522.42;1744375;80;21509;-67
2020/12/25 07:19:39;;;;;;;5.37;2.30;;;;;;;3.45;96.86;99525.53;1746885;80;25261;-67
2020/12/25 07:22:06;;;;;;;4.90;2.20;;;;;;;3.47;96.75;99525.41;1744189;80;21584;-67
2020/12/25 07:24:32;;;;;;;6.83;2.40;;;;;;;3.49;96.89;99525.62;1746611;80;21145;-66
2020/12/25 07:26:58;;;;;;;5.15;1.98;;;;;;;3.53;96.29;99537.47;1749029;80;21185;-68
2020/12/25 07:29:24;;;;;;;5.47;2.10;;;;;;;3.54;96.05;99529.16;1743075;80;21629;-68
2020/12/25 07:31:52;;;;;;;4.10;2.30;;;;;;;3.59;95.95;99533.05;1749945;80;21188;-66
2020/12/25 07:34:22;;;;;;;4.67;1.90;;;;;;;3.55;95.55;99533.43;1741211;80;21215;-67
2020/12/25 07:36:49;;;;;;;4.72;2.12;;;;;;;3.63;95.18;99535.41;1745829;80;21143;-67
2020/12/25 07:39:15;;;;;;;4.80;2.15;;;;;;;3.51;94.50;99548.53;1743288;80;21194;-67
2020/12/25 07:41:41;;;;;;;3.72;2.10;;;;;;;3.51;94.09;99544.61;1752215;80;21387;-68
2020/12/25 07:44:07;;;;;;;4.70;1.90;;;;;;;3.56;94.14;99534.61;1745903;80;26611;-67
2020/12/25 07:46:33;;;;;;;4.58;1.90;;;;;;;3.69;93.73;99537.52;1747779;80;21659;-68
2020/12/25 07:48:59;;;;;;;5.80;2.30;;;;;;;3.71;92.95;99542.13;1744338;80;21213;-67
2020/12/25 07:51:25;;;;;;;4.95;2.40;;;;;;;3.75;92.17;99552.19;1744541;80;26642;-67
2020/12/25 07:53:51;;;;;;;5.87;2.10;;;;;;;3.72;92.41;99555.54;1744313;80;21384;-67
2020/12/25 07:56:21;;;;;;;6.67;2.30;;;;;;;3.65;92.05;99555.23;1739577;80;22534;-67
2020/12/25 07:58:49;;;;;;;4.65;2.27;;;;;;;3.57;91.99;99564.15;1744910;80;21236;-68
2020/12/25 08:01:20;;;;;;;5.53;2.40;;;;;;;3.59;91.97;99557.86;1745414;80;21268;-67
2020/12/25 08:03:46;;;;;;;5.35;2.27;;;;;;;3.71;91.97;99569.09;1744124;80;21197;-68
2020/12/25 08:06:15;;;;;;;5.50;1.80;;;;;;;3.68;91.04;99564.57;1746099;80;21355;-67
2020/12/25 08:08:53;;;;;;;4.20;1.52;;;;;;;3.70;90.54;99565.30;1744356;80;21187;-67
2020/12/25 08:11:19;;;;;;;3.90;1.70;;;;;;;3.71;89.97;99585.20;1746441;80;21183;-67
2020/12/25 08:13:47;;;;;;;3.62;1.70;;;;;;;3.65;89.97;99583.09;1743684;80;21201;-66
2020/12/25 08:16:13;;;;;;;5.55;1.70;;;;;;;3.73;89.46;99595.08;1741796;80;21256;-67
2020/12/25 08:18:39;;;;;;;3.45;1.45;;;;;;;3.72;89.13;99584.27;1743667;80;21828;-67
2020/12/25 08:21:04;;;;;;;3.87;1.70;;;;;;;3.67;89.11;99590.35;1742975;80;26363;-67
2020/12/25 08:23:36;;;;;;;3.57;1.50;;;;;;;3.67;89.28;99594.27;1748332;80;23752;-69
2020/12/25 08:26:03;;;;;;;3.22;1.60;;;;;;;3.66;89.11;99589.98;1757252;80;21213;-67
2020/12/25 08:28:32;;;;;;;3.10;1.60;;;;;;;3.64;89.18;99591.42;1758973;80;21616;-69
2020/12/25 08:31:01;;;;;;;3.08;1.57;;;;;;;3.68;89.17;99588.07;1759733;80;21248;-68
2020/12/25 08:33:27;;;;;;;3.05;1.62;;;;;;;3.47;89.11;99567.99;1757845;80;21172;-68
2020/12/25 08:35:53;;;;;;;3.15;1.75;;;;;;;3.70;89.30;99603.98;1762385;80;21217;-68
2020/12/25 08:38:20;;;;;;;3.27;1.42;;;;;;;3.70;88.98;99614.91;1763307;80;21172;-66
2020/12/25 08:40:47;;;;;;;3.20;1.70;;;;;;;3.66;88.41;99614.31;1757811;80;21590;-67
2020/12/25 08:43:17;;;;;;;5.17;1.60;;;;;;;3.61;88.32;99626.10;1762507;80;21761;-68
2020/12/25 08:45:59;;;;;;;2.55;1.50;;;;;;;3.56;87.98;99622.07;1764304;80;22101;-67
2020/12/25 08:48:25;;;;;;;4.60;1.72;;;;;;;3.65;88.33;99622.27;1762066;80;21260;-70
2020/12/25 08:50:50;;;;;;;4.03;1.75;;;;;;;3.67;88.14;99629.03;1761037;80;28420;-65
2020/12/25 08:53:20;;;;;;;4.35;1.65;;;;;;;3.64;88.12;99621.94;1758137;80;26662;-66
2020/12/25 08:55:50;;;;;;;3.05;1.77;;;;;;;3.66;87.89;99630.46;1766349;80;21244;-66
2020/12/25 08:58:18;;;;;;;2.62;1.50;;;;;;;3.72;87.70;99625.56;1760278;80;21239;-68
2020/12/25 09:00:45;;;;;;;3.40;1.70;;;;;;;3.55;86.28;99625.63;1762357;80;21182;-67
2020/12/25 09:03:11;;;;;;;;;;;;;;;3.55;86.28;99625.63;1769035;80;21144;-67
2020/12/25 09:05:36;;;;;;;2.98;1.60;;;;;;;3.62;85.44;99643.40;1761078;80;20216;-67
2020/12/25 09:08:02;;;;;;;6.78;1.72;;;;;;;3.65;84.96;99635.32;1761944;80;21879;-69
2020/12/25 09:10:28;;;;;;;2.90;1.40;;;;;;;3.90;84.60;99648.51;1762893;80;26785;-68
2020/12/25 09:12:54;;;;;;;2.45;1.27;;;;;;;3.87;84.34;99648.30;1761863;80;25304;-69
2020/12/25 09:15:19;;;;;;;3.83;1.30;;;;;;;3.79;83.99;99650.69;1760614;80;28465;-67
2020/12/25 09:17:46;;;;;;;5.42;1.40;;;;;;;3.68;83.55;99647.67;1760995;80;26767;-68
2020/12/25 09:20:12;;;;;;;2.62;1.50;;;;;;;3.64;84.16;99650.17;1761740;80;21376;-69
2020/12/25 09:22:38;;;;;;;2.67;1.30;;;;;;;3.65;83.55;99654.91;1760704;80;24798;-68
2020/12/25 09:25:03;;;;;;;2.33;1.20;;;;;;;3.68;83.45;99645.52;1745410;80;21785;-70
2020/12/25 09:27:29;;;;;;;3.22;1.47;;;;;;;3.72;83.06;99641.72;1743525;80;28379;-67
2020/12/25 09:29:55;;;;;;;2.45;1.40;;;;;;;3.81;83.13;99643.58;1746253;80;26975;-67
2020/12/25 09:32:21;;;;;;;2.50;1.35;;;;;;;3.73;82.94;99642.08;1746303;80;21870;-68
2020/12/25 09:34:46;;;;;;;4.03;1.55;;;;;;;3.80;83.35;99639.30;1744196;80;26366;-67
2020/12/25 09:37:12;;;;;;;3.73;1.80;;;;;;;3.82;83.20;99637.38;1745218;80;22873;-66
2020/12/25 09:39:39;;;;;;;4.15;1.80;;;;;;;3.92;83.45;99651.84;1745801;80;28411;-66
2020/12/25 09:42:05;;;;;;;4.83;1.62;;;;;;;3.89;83.30;99638.55;1746727;80;21186;-67
2020/12/25 09:44:30;;;;;;;3.22;1.50;;;;;;;3.95;83.62;99648.49;1709076;81;21906;-68
2020/12/25 09:46:56;;;;;;;3.73;1.63;;;;;;;3.94;83.21;99646.01;1742380;80;25296;-66
2020/12/25 09:49:22;;;;;;;4.27;1.77;;;;;;;3.85;83.70;99655.41;1743877;80;24668;-67
2020/12/25 09:51:48;;;;;;;3.62;1.80;;;;;;;3.85;84.34;99652.80;1744880;80;28444;-68
2020/12/25 09:54:13;;;;;;;4.50;1.80;;;;;;;3.86;84.73;99658.39;1742943;80;27242;-69
2020/12/25 09:56:39;;;;;;;4.17;2.25;;;;;;;3.87;85.33;99661.81;1750372;80;21462;-70
2020/12/25 09:59:05;;;;;;;6.43;2.60;;;;;;;3.76;86.12;99695.36;1744779;80;26609;-68
2020/12/25 10:01:32;;;;;;;6.60;2.40;;;;;;;3.73;86.60;99660.36;1745383;80;24185;-68
2020/12/25 10:03:57;;;;;;;5.78;2.40;;;;;;;3.73;87.10;99674.72;1742691;80;21184;-66
2020/12/25 10:06:25;;;;;;;5.70;2.60;;;;;;;3.54;87.41;99682.72;1746782;80;26704;-67
2020/12/25 10:08:51;;;;;;;;;;;;;;;3.48;88.05;99684.52;1751956;80;21147;-67
2020/12/25 10:11:20;;;;;;;7.20;2.67;;;;;;;3.44;88.40;99659.59;1745763;80;20270;-68
2020/12/25 10:13:45;;;;;;;4.78;2.55;;;;;;;3.59;87.76;99672.73;1744216;80;21548;-70
2020/12/25 10:16:11;;;;;;;4.67;2.60;;;;;;;3.64;87.49;99697.16;1747654;80;28398;-70
2020/12/25 10:18:37;;;;;;;5.95;2.60;;;;;;;3.49;87.08;99693.16;1743367;79;26773;-69
2020/12/25 10:21:02;;;;;;;5.50;2.77;;;;;;;3.43;87.03;99710.13;1749966;80;21932;-70
2020/12/25 10:23:28;;;;;;;5.00;2.83;;;;;;;3.43;86.93;99709.31;1743138;80;26310;-71
2020/12/25 10:25:54;;;;;;;4.83;2.67;;;;;;;3.30;86.28;99705.05;1746987;80;22754;-69
2020/12/25 10:28:20;;;;;;;4.87;2.80;;;;;;;3.40;86.04;99706.00;1745870;80;21226;-69
2020/12/25 10:30:47;;;;;;;4.45;2.47;;;;;;;3.36;85.25;99718.93;1746593;80;27242;-69
2020/12/25 10:33:13;;;;;;;4.78;2.80;;;;;;;3.21;85.40;99703.98;1719138;80;22134;-70
2020/12/25 10:35:39;;;;;;;5.08;2.55;;;;;;;3.28;84.90;99706.97;1748935;80;26965;-70
2020/12/25 10:38:04;;;;;;;4.40;2.53;;;;;;;3.27;84.99;99703.17;1742905;80;25732;-69
2020/12/25 10:40:30;;;;;;;6.65;2.87;;;;;;;3.29;84.77;99709.09;1742151;80;27913;-69
2020/12/25 10:42:56;;;;;;;4.80;2.52;;;;;;;3.31;84.91;99704.11;1709154;81;26829;-70
2020/12/25 10:45:21;;;;;;;6.50;2.87;;;;;;;3.21;84.55;99711.81;1749139;80;22699;-69
2020/12/25 10:47:47;;;;;;;5.87;2.93;;;;;;;3.24;84.95;99700.31;1743519;80;25362;-70
2020/12/25 10:50:15;;;;;;;4.67;2.43;;;;;;;3.31;84.76;99699.35;1709447;81;23875;-68
2020/12/25 10:52:41;;;;;;;5.60;2.90;;;;;;;3.39;84.77;99710.86;1744852;80;21613;-70
2020/12/25 10:55:06;;;;;;;4.53;3.08;;;;;;;3.43;84.87;99702.30;1744432;80;27041;-69
2020/12/25 10:57:32;;;;;;;4.97;3.02;;;;;;;3.35;85.25;99705.52;1749624;80;22004;-69
2020/12/25 10:59:58;;;;;;;6.17;3.37;;;;;;;3.42;84.56;99721.55;1747902;80;24338;-69
2020/12/25 11:02:24;;;;;;;4.73;2.90;;;;;;;3.39;84.22;99717.88;1745773;80;22872;-69
2020/12/25 11:04:49;;;;;;;5.42;2.90;;;;;;;3.42;84.21;99726.77;1745179;80;28312;-70
2020/12/25 11:07:15;;;;;;;6.08;2.80;;;;;;;3.36;84.44;99723.33;1744313;80;26735;-69
2020/12/25 11:09:41;;;;;;;6.00;3.13;;;;;;;3.38;84.30;99722.73;1744308;80;21372;-70
2020/12/25 11:12:07;;;;;;;6.97;3.53;;;;;;;3.42;84.61;99718.94;1745503;80;23642;-68
2020/12/25 11:14:34;;;;;;;5.90;2.87;;;;;;;3.50;84.49;99717.84;1743369;80;23686;-69
2020/12/25 11:16:59;;;;;;;5.72;2.67;;;;;;;3.58;84.35;99718.05;1744992;80;21161;-69
2020/12/25 11:19:25;;;;;;;4.90;2.70;;;;;;;3.49;83.94;99709.64;1741396;80;26750;-69
2020/12/25 11:21:51;;;;;;;7.70;2.98;;;;;;;3.62;84.01;99713.89;1742627;80;21828;-68
2020/12/25 11:24:17;;;;;;;6.63;3.47;;;;;;;3.57;84.17;99712.50;1745720;80;27276;-67
2020/12/25 11:26:42;;;;;;;4.57;2.70;;;;;;;3.46;84.82;99713.80;1768809;80;24192;-71
2020/12/25 11:29:08;;;;;;;6.20;3.15;;;;;;;3.47;84.84;99714.17;1761410;80;29013;-69
2020/12/25 11:31:36;;;;;;;5.45;2.80;;;;;;;3.42;84.16;99716.33;1758606;80;27719;-67
2020/12/25 11:34:01;;;;;;;6.05;2.85;;;;;;;3.50;84.29;99713.93;1760810;80;21457;-67
2020/12/25 11:36:32;;;;;;;5.30;2.90;;;;;;;3.45;83.94;99720.00;1761383;80;25218;-69
2020/12/25 11:38:58;;;;;;;5.95;2.87;;;;;;;3.52;84.00;99719.84;1758097;80;21256;-69